sensor_id;sensor_type;location;lat;lon;timestamp;pressure;altitude;pressure_sealevel;temperature;humidity
60920;BME280;59039;52.108;19.942;2023-03-22T00:00:54;100594.66;;;4.33;77.84
60920;BME280;59039;52.108;19.942;2023-03-22T00:03:21;100592.75;;;4.32;77.74
60920;BME280;59039;52.108;19.942;2023-03-22T00:05:48;100592.80;;;4.31;77.94
60920;BME280;59039;52.108;19.942;2023-03-22T00:08:34;100590.00;;;4.30;78.01
60920;BME280;59039;52.108;19.942;2023-03-22T00:10:59;100585.02;;;4.30;78.20
60920;BME280;59039;52.108;19.942;2023-03-22T00:13:25;100578.16;;;4.30;77.94
60920;BME280;59039;52.108;19.942;2023-03-22T00:15:50;100578.36;;;4.30;78.18
60920;BME280;59039;52.108;19.942;2023-03-22T00:18:16;100577.67;;;4.30;78.06
60920;BME280;59039;52.108;19.942;2023-03-22T00:20:53;100574.23;;;4.28;77.95
60920;BME280;59039;52.108;19.942;2023-03-22T00:23:19;100576.52;;;4.23;78.03
60920;BME280;59039;52.108;19.942;2023-03-22T00:25:54;100574.75;;;4.20;78.20
60920;BME280;59039;52.108;19.942;2023-03-22T00:28:23;100573.26;;;4.16;77.97
60920;BME280;59039;52.108;19.942;2023-03-22T00:30:55;100572.94;;;4.10;78.01
60920;BME280;59039;52.108;19.942;2023-03-22T00:33:22;100573.79;;;4.06;78.53
60920;BME280;59039;52.108;19.942;2023-03-22T00:35:52;100577.11;;;4.05;78.64
60920;BME280;59039;52.108;19.942;2023-03-22T00:38:21;100577.45;;;4.05;79.21
60920;BME280;59039;52.108;19.942;2023-03-22T00:41:03;100573.27;;;4.06;78.91
60920;BME280;59039;52.108;19.942;2023-03-22T00:43:29;100577.32;;;4.07;78.98
60920;BME280;59039;52.108;19.942;2023-03-22T00:45:54;100574.71;;;4.08;78.95
60920;BME280;59039;52.108;19.942;2023-03-22T00:48:20;100570.10;;;4.10;78.80
60920;BME280;59039;52.108;19.942;2023-03-22T00:50:48;100571.06;;;4.11;78.84
60920;BME280;59039;52.108;19.942;2023-03-22T00:53:24;100567.52;;;4.13;79.01
60920;BME280;59039;52.108;19.942;2023-03-22T00:55:52;100568.16;;;4.15;78.74
60920;BME280;59039;52.108;19.942;2023-03-22T00:58:17;100565.89;;;4.16;78.73
60920;BME280;59039;52.108;19.942;2023-03-22T01:00:43;100562.73;;;4.17;78.48
60920;BME280;59039;52.108;19.942;2023-03-22T01:03:08;100562.33;;;4.18;78.47
60920;BME280;59039;52.108;19.942;2023-03-22T01:05:33;100564.02;;;4.20;78.56
60920;BME280;59039;52.108;19.942;2023-03-22T01:08:00;100563.95;;;4.21;78.68
60920;BME280;59039;52.108;19.942;2023-03-22T01:10:25;100561.17;;;4.22;78.59
60920;BME280;59039;52.108;19.942;2023-03-22T01:12:53;100554.46;;;4.23;78.43
60920;BME280;59039;52.108;19.942;2023-03-22T01:15:21;100553.64;;;4.22;78.56
60920;BME280;59039;52.108;19.942;2023-03-22T01:18:00;100550.55;;;4.20;78.50
60920;BME280;59039;52.108;19.942;2023-03-22T01:20:25;100544.15;;;4.16;78.48
60920;BME280;59039;52.108;19.942;2023-03-22T01:22:51;100543.01;;;4.13;78.68
60920;BME280;59039;52.108;19.942;2023-03-22T01:25:25;100539.83;;;4.10;78.81
60920;BME280;59039;52.108;19.942;2023-03-22T01:27:51;100538.08;;;4.09;79.23
60920;BME280;59039;52.108;19.942;2023-03-22T01:30:17;100534.89;;;4.09;79.13
60920;BME280;59039;52.108;19.942;2023-03-22T01:32:42;100530.49;;;4.07;79.25
60920;BME280;59039;52.108;19.942;2023-03-22T01:35:08;100528.84;;;4.05;79.50
60920;BME280;59039;52.108;19.942;2023-03-22T01:37:36;100530.48;;;4.05;79.75
60920;BME280;59039;52.108;19.942;2023-03-22T01:40:02;100530.11;;;4.05;79.90
60920;BME280;59039;52.108;19.942;2023-03-22T01:42:28;100527.70;;;4.06;79.76
60920;BME280;59039;52.108;19.942;2023-03-22T01:47:39;100517.64;;;4.09;79.72
60920;BME280;59039;52.108;19.942;2023-03-22T01:50:07;100515.48;;;4.09;79.50
60920;BME280;59039;52.108;19.942;2023-03-22T01:52:40;100510.22;;;4.10;79.56
60920;BME280;59039;52.108;19.942;2023-03-22T01:55:09;100508.06;;;4.10;79.51
60920;BME280;59039;52.108;19.942;2023-03-22T01:57:46;100506.89;;;4.09;79.79
60920;BME280;59039;52.108;19.942;2023-03-22T02:00:12;100499.48;;;4.10;79.62
60920;BME280;59039;52.108;19.942;2023-03-22T02:02:47;100491.21;;;4.10;79.57
60920;BME280;59039;52.108;19.942;2023-03-22T02:05:17;100491.18;;;4.10;79.72
60920;BME280;59039;52.108;19.942;2023-03-22T02:07:46;100489.04;;;4.10;79.73
60920;BME280;59039;52.108;19.942;2023-03-22T02:10:23;100491.69;;;4.11;79.85
60920;BME280;59039;52.108;19.942;2023-03-22T02:13:18;100489.34;;;4.11;79.63
60920;BME280;59039;52.108;19.942;2023-03-22T02:16:15;100482.44;;;4.07;79.48
60920;BME280;59039;52.108;19.942;2023-03-22T02:27:21;100474.91;;;3.97;80.08
60920;BME280;59039;52.108;19.942;2023-03-22T02:44:38;100465.64;;;3.94;80.33
60920;BME280;59039;52.108;19.942;2023-03-22T02:52:36;100464.00;;;3.97;80.05
60920;BME280;59039;52.108;19.942;2023-03-22T02:55:23;100460.48;;;3.98;80.22
60920;BME280;59039;52.108;19.942;2023-03-22T02:58:10;100454.30;;;4.00;80.00
60920;BME280;59039;52.108;19.942;2023-03-22T03:00:49;100451.44;;;4.00;80.03
60920;BME280;59039;52.108;19.942;2023-03-22T03:03:19;100449.64;;;4.00;80.11
60920;BME280;59039;52.108;19.942;2023-03-22T03:06:00;100448.32;;;4.01;80.12
60920;BME280;59039;52.108;19.942;2023-03-22T03:08:48;100448.03;;;4.00;80.01
60920;BME280;59039;52.108;19.942;2023-03-22T03:11:28;100445.30;;;3.98;79.71
60920;BME280;59039;52.108;19.942;2023-03-22T03:13:53;100447.58;;;3.93;79.80
60920;BME280;59039;52.108;19.942;2023-03-22T03:16:31;100447.59;;;3.91;80.03
60920;BME280;59039;52.108;19.942;2023-03-22T03:19:02;100450.30;;;3.91;80.56
60920;BME280;59039;52.108;19.942;2023-03-22T03:27:12;100449.23;;;3.90;80.58
60920;BME280;59039;52.108;19.942;2023-03-22T03:32:59;100440.75;;;3.91;80.58
60920;BME280;59039;52.108;19.942;2023-03-22T03:35:40;100439.77;;;3.90;80.44
60920;BME280;59039;52.108;19.942;2023-03-22T03:38:14;100441.27;;;3.89;80.47
60920;BME280;59039;52.108;19.942;2023-03-22T03:40:51;100440.06;;;3.88;80.15
60920;BME280;59039;52.108;19.942;2023-03-22T03:43:24;100435.04;;;3.86;80.20
60920;BME280;59039;52.108;19.942;2023-03-22T03:46:13;100434.38;;;3.85;80.70
60920;BME280;59039;52.108;19.942;2023-03-22T03:48:46;100434.48;;;3.86;80.87
60920;BME280;59039;52.108;19.942;2023-03-22T03:51:12;100433.73;;;3.87;81.15
60920;BME280;59039;52.108;19.942;2023-03-22T03:53:38;100435.29;;;3.87;81.13
60920;BME280;59039;52.108;19.942;2023-03-22T03:56:12;100434.48;;;3.89;80.77
60920;BME280;59039;52.108;19.942;2023-03-22T03:58:38;100437.52;;;3.89;80.71
60920;BME280;59039;52.108;19.942;2023-03-22T04:01:06;100434.33;;;3.89;80.86
60920;BME280;59039;52.108;19.942;2023-03-22T04:03:32;100434.52;;;3.88;81.07
60920;BME280;59039;52.108;19.942;2023-03-22T04:05:57;100437.23;;;3.88;80.99
60920;BME280;59039;52.108;19.942;2023-03-22T04:08:23;100437.88;;;3.89;81.44
60920;BME280;59039;52.108;19.942;2023-03-22T04:10:49;100437.58;;;3.91;81.53
60920;BME280;59039;52.108;19.942;2023-03-22T04:13:14;100442.20;;;3.93;81.58
60920;BME280;59039;52.108;19.942;2023-03-22T04:15:50;100438.75;;;3.96;81.54
60920;BME280;59039;52.108;19.942;2023-03-22T04:18:19;100439.71;;;4.01;81.58
60920;BME280;59039;52.108;19.942;2023-03-22T04:20:47;100437.35;;;4.03;81.85
60920;BME280;59039;52.108;19.942;2023-03-22T04:23:13;100429.46;;;4.06;81.60
60920;BME280;59039;52.108;19.942;2023-03-22T04:25:42;100427.09;;;4.09;81.44
60920;BME280;59039;52.108;19.942;2023-03-22T04:28:08;100428.79;;;4.10;81.86
60920;BME280;59039;52.108;19.942;2023-03-22T04:30:36;100439.44;;;4.14;81.90
60920;BME280;59039;52.108;19.942;2023-03-22T04:33:23;100437.05;;;4.17;82.17
60920;BME280;59039;52.108;19.942;2023-03-22T04:35:56;100435.83;;;4.22;82.43
60920;BME280;59039;52.108;19.942;2023-03-22T04:38:22;100434.85;;;4.25;82.52
60920;BME280;59039;52.108;19.942;2023-03-22T04:40:50;100431.91;;;4.29;82.57
60920;BME280;59039;52.108;19.942;2023-03-22T04:43:15;100431.46;;;4.32;82.63
60920;BME280;59039;52.108;19.942;2023-03-22T04:45:41;100430.27;;;4.36;82.68
60920;BME280;59039;52.108;19.942;2023-03-22T04:48:06;100431.27;;;4.40;82.44
60920;BME280;59039;52.108;19.942;2023-03-22T04:50:32;100428.97;;;4.44;82.63
60920;BME280;59039;52.108;19.942;2023-03-22T04:52:57;100428.63;;;4.48;82.66
60920;BME280;59039;52.108;19.942;2023-03-22T04:55:23;100427.92;;;4.53;82.69
60920;BME280;59039;52.108;19.942;2023-03-22T04:57:50;100428.08;;;4.58;82.69
60920;BME280;59039;52.108;19.942;2023-03-22T05:00:16;100430.58;;;4.64;82.71
60920;BME280;59039;52.108;19.942;2023-03-22T05:02:41;100431.33;;;4.67;83.00
60920;BME280;59039;52.108;19.942;2023-03-22T05:05:07;100430.80;;;4.72;83.02
60920;BME280;59039;52.108;19.942;2023-03-22T05:07:33;100430.11;;;4.76;83.10
60920;BME280;59039;52.108;19.942;2023-03-22T05:10:00;100427.17;;;4.82;82.92
60920;BME280;59039;52.108;19.942;2023-03-22T05:12:26;100432.97;;;4.86;83.05
60920;BME280;59039;52.108;19.942;2023-03-22T05:14:51;100435.67;;;4.90;83.01
60920;BME280;59039;52.108;19.942;2023-03-22T05:17:17;100435.69;;;4.95;83.12
60920;BME280;59039;52.108;19.942;2023-03-22T05:19:52;100439.67;;;4.99;83.11
60920;BME280;59039;52.108;19.942;2023-03-22T05:22:17;100438.80;;;5.03;83.25
60920;BME280;59039;52.108;19.942;2023-03-22T05:24:43;100438.52;;;5.10;83.42
60920;BME280;59039;52.108;19.942;2023-03-22T05:27:08;100439.19;;;5.15;83.37
60920;BME280;59039;52.108;19.942;2023-03-22T05:29:34;100435.58;;;5.19;83.31
60920;BME280;59039;52.108;19.942;2023-03-22T05:31:59;100436.08;;;5.25;83.14
60920;BME280;59039;52.108;19.942;2023-03-22T05:34:25;100431.32;;;5.28;83.24
60920;BME280;59039;52.108;19.942;2023-03-22T05:36:53;100432.44;;;5.32;83.36
60920;BME280;59039;52.108;19.942;2023-03-22T05:39:39;100432.60;;;5.37;83.54
60920;BME280;59039;52.108;19.942;2023-03-22T05:42:06;100431.05;;;5.43;83.51
60920;BME280;59039;52.108;19.942;2023-03-22T05:44:34;100427.25;;;5.48;83.68
60920;BME280;59039;52.108;19.942;2023-03-22T05:47:00;100428.13;;;5.52;83.36
60920;BME280;59039;52.108;19.942;2023-03-22T05:49:25;100427.40;;;5.57;83.47
60920;BME280;59039;52.108;19.942;2023-03-22T05:51:59;100423.75;;;5.62;83.57
60920;BME280;59039;52.108;19.942;2023-03-22T05:54:33;100423.29;;;5.68;83.68
60920;BME280;59039;52.108;19.942;2023-03-22T05:56:59;100422.81;;;5.74;83.81
60920;BME280;59039;52.108;19.942;2023-03-22T05:59:24;100427.41;;;5.79;84.05
60920;BME280;59039;52.108;19.942;2023-03-22T06:01:52;100429.25;;;5.86;83.81
60920;BME280;59039;52.108;19.942;2023-03-22T06:04:18;100431.15;;;5.91;83.86
60920;BME280;59039;52.108;19.942;2023-03-22T06:06:45;100428.65;;;5.96;83.64
60920;BME280;59039;52.108;19.942;2023-03-22T06:09:11;100425.09;;;5.99;83.63
60920;BME280;59039;52.108;19.942;2023-03-22T06:11:39;100427.20;;;6.04;83.36
60920;BME280;59039;52.108;19.942;2023-03-22T06:14:04;100424.77;;;6.10;83.41
60920;BME280;59039;52.108;19.942;2023-03-22T06:16:30;100425.51;;;6.14;83.65
60920;BME280;59039;52.108;19.942;2023-03-22T06:18:55;100425.81;;;6.19;83.63
60920;BME280;59039;52.108;19.942;2023-03-22T06:21:21;100427.39;;;6.24;83.73
60920;BME280;59039;52.108;19.942;2023-03-22T06:23:51;100426.38;;;6.30;83.62
60920;BME280;59039;52.108;19.942;2023-03-22T06:26:17;100425.82;;;6.35;83.56
60920;BME280;59039;52.108;19.942;2023-03-22T06:28:42;100429.42;;;6.41;83.61
60920;BME280;59039;52.108;19.942;2023-03-22T06:31:11;100430.73;;;6.47;83.62
60920;BME280;59039;52.108;19.942;2023-03-22T06:33:36;100427.96;;;6.52;83.71
60920;BME280;59039;52.108;19.942;2023-03-22T06:36:02;100427.42;;;6.58;83.48
60920;BME280;59039;52.108;19.942;2023-03-22T06:38:28;100423.75;;;6.63;83.46
60920;BME280;59039;52.108;19.942;2023-03-22T06:40:54;100419.13;;;6.69;83.43
60920;BME280;59039;52.108;19.942;2023-03-22T06:43:20;100411.77;;;6.75;83.27
60920;BME280;59039;52.108;19.942;2023-03-22T06:45:49;100408.11;;;6.80;83.35
60920;BME280;59039;52.108;19.942;2023-03-22T06:48:17;100404.02;;;6.86;83.24
60920;BME280;59039;52.108;19.942;2023-03-22T06:50:43;100404.81;;;6.91;83.13
60920;BME280;59039;52.108;19.942;2023-03-22T06:53:09;100402.30;;;6.96;83.12
60920;BME280;59039;52.108;19.942;2023-03-22T06:55:34;100404.67;;;7.02;82.98
60920;BME280;59039;52.108;19.942;2023-03-22T06:58:00;100407.61;;;7.07;82.81
60920;BME280;59039;52.108;19.942;2023-03-22T07:00:26;100406.81;;;7.12;82.76
60920;BME280;59039;52.108;19.942;2023-03-22T07:02:52;100404.65;;;7.17;82.86
60920;BME280;59039;52.108;19.942;2023-03-22T07:05:18;100400.94;;;7.22;82.73
60920;BME280;59039;52.108;19.942;2023-03-22T07:07:47;100403.04;;;7.26;82.67
60920;BME280;59039;52.108;19.942;2023-03-22T07:10:18;100403.41;;;7.30;82.71
60920;BME280;59039;52.108;19.942;2023-03-22T07:12:43;100401.14;;;7.36;82.55
60920;BME280;59039;52.108;19.942;2023-03-22T07:15:09;100395.48;;;7.41;82.49
60920;BME280;59039;52.108;19.942;2023-03-22T07:17:34;100394.89;;;7.45;82.49
60920;BME280;59039;52.108;19.942;2023-03-22T07:20:15;100394.17;;;7.50;82.38
60920;BME280;59039;52.108;19.942;2023-03-22T07:22:40;100389.60;;;7.54;82.42
60920;BME280;59039;52.108;19.942;2023-03-22T07:25:06;100384.02;;;7.59;82.35
60920;BME280;59039;52.108;19.942;2023-03-22T07:27:32;100380.36;;;7.63;82.39
60920;BME280;59039;52.108;19.942;2023-03-22T07:30:01;100374.88;;;7.68;82.08
60920;BME280;59039;52.108;19.942;2023-03-22T07:32:29;100372.18;;;7.71;82.03
60920;BME280;59039;52.108;19.942;2023-03-22T07:34:59;100369.34;;;7.75;81.86
60920;BME280;59039;52.108;19.942;2023-03-22T07:37:24;100367.39;;;7.79;81.82
60920;BME280;59039;52.108;19.942;2023-03-22T07:39:49;100364.18;;;7.83;81.81
60920;BME280;59039;52.108;19.942;2023-03-22T07:42:15;100361.92;;;7.86;81.77
60920;BME280;59039;52.108;19.942;2023-03-22T07:44:40;100354.75;;;7.89;81.61
60920;BME280;59039;52.108;19.942;2023-03-22T07:47:05;100355.91;;;7.92;81.55
60920;BME280;59039;52.108;19.942;2023-03-22T07:49:31;100353.58;;;7.94;81.49
60920;BME280;59039;52.108;19.942;2023-03-22T07:51:56;100350.13;;;7.97;81.51
60920;BME280;59039;52.108;19.942;2023-03-22T07:54:22;100352.09;;;7.99;81.44
60920;BME280;59039;52.108;19.942;2023-03-22T07:56:47;100342.52;;;8.01;81.48
60920;BME280;59039;52.108;19.942;2023-03-22T07:59:16;100337.85;;;8.02;81.38
60920;BME280;59039;52.108;19.942;2023-03-22T08:01:44;100340.92;;;8.06;81.54
60920;BME280;59039;52.108;19.942;2023-03-22T08:04:12;100340.90;;;8.10;81.59
60920;BME280;59039;52.108;19.942;2023-03-22T08:06:38;100343.84;;;8.15;81.68
60920;BME280;59039;52.108;19.942;2023-03-22T08:09:06;100347.15;;;8.21;81.81
60920;BME280;59039;52.108;19.942;2023-03-22T08:11:35;100349.15;;;8.26;81.70
60920;BME280;59039;52.108;19.942;2023-03-22T08:14:00;100348.08;;;8.32;81.58
60920;BME280;59039;52.108;19.942;2023-03-22T08:16:25;100346.52;;;8.37;81.43
60920;BME280;59039;52.108;19.942;2023-03-22T08:18:51;100345.41;;;8.42;81.48
60920;BME280;59039;52.108;19.942;2023-03-22T08:21:16;100349.04;;;8.48;81.52
60920;BME280;59039;52.108;19.942;2023-03-22T08:23:42;100350.33;;;8.53;81.36
60920;BME280;59039;52.108;19.942;2023-03-22T08:26:10;100351.89;;;8.58;81.34
60920;BME280;59039;52.108;19.942;2023-03-22T08:28:38;100350.95;;;8.62;81.35
60920;BME280;59039;52.108;19.942;2023-03-22T08:31:13;100348.57;;;8.68;81.19
60920;BME280;59039;52.108;19.942;2023-03-22T08:33:42;100351.37;;;8.73;81.05
60920;BME280;59039;52.108;19.942;2023-03-22T08:36:10;100354.13;;;8.78;81.14
60920;BME280;59039;52.108;19.942;2023-03-22T08:38:39;100357.58;;;8.84;81.11
60920;BME280;59039;52.108;19.942;2023-03-22T08:41:04;100359.21;;;8.89;80.89
60920;BME280;59039;52.108;19.942;2023-03-22T08:43:30;100363.51;;;8.95;80.93
60920;BME280;59039;52.108;19.942;2023-03-22T08:45:59;100361.67;;;9.00;80.65
60920;BME280;59039;52.108;19.942;2023-03-22T08:48:31;100363.25;;;9.06;80.45
60920;BME280;59039;52.108;19.942;2023-03-22T08:51:02;100358.27;;;9.11;80.10
60920;BME280;59039;52.108;19.942;2023-03-22T08:53:28;100356.19;;;9.15;79.93
60920;BME280;59039;52.108;19.942;2023-03-22T08:55:53;100352.34;;;9.20;79.85
60920;BME280;59039;52.108;19.942;2023-03-22T08:58:21;100350.73;;;9.26;79.69
60920;BME280;59039;52.108;19.942;2023-03-22T09:00:46;100349.62;;;9.29;79.50
60920;BME280;59039;52.108;19.942;2023-03-22T09:03:12;100350.67;;;9.33;79.40
60920;BME280;59039;52.108;19.942;2023-03-22T09:05:37;100352.02;;;9.38;79.22
60920;BME280;59039;52.108;19.942;2023-03-22T09:08:03;100353.20;;;9.43;79.03
60920;BME280;59039;52.108;19.942;2023-03-22T09:10:28;100354.82;;;9.47;78.99
60920;BME280;59039;52.108;19.942;2023-03-22T09:12:55;100352.96;;;9.51;78.78
60920;BME280;59039;52.108;19.942;2023-03-22T09:15:20;100347.42;;;9.54;78.56
60920;BME280;59039;52.108;19.942;2023-03-22T09:17:51;100346.72;;;9.57;78.70
60920;BME280;59039;52.108;19.942;2023-03-22T09:20:21;100347.86;;;9.60;78.36
60920;BME280;59039;52.108;19.942;2023-03-22T09:22:47;100347.40;;;9.63;78.20
60920;BME280;59039;52.108;19.942;2023-03-22T09:25:15;100349.71;;;9.68;78.21
60920;BME280;59039;52.108;19.942;2023-03-22T09:27:42;100349.12;;;9.71;78.08
60920;BME280;59039;52.108;19.942;2023-03-22T09:32:46;100338.98;;;9.81;78.19
60920;BME280;59039;52.108;19.942;2023-03-22T09:35:12;100336.30;;;9.86;78.16
60920;BME280;59039;52.108;19.942;2023-03-22T09:37:37;100332.89;;;9.91;78.10
60920;BME280;59039;52.108;19.942;2023-03-22T09:40:03;100333.42;;;9.96;78.02
60920;BME280;59039;52.108;19.942;2023-03-22T09:42:38;100332.60;;;10.01;77.84
60920;BME280;59039;52.108;19.942;2023-03-22T09:45:10;100337.30;;;10.07;77.72
60920;BME280;59039;52.108;19.942;2023-03-22T09:47:44;100329.17;;;10.12;77.74
60920;BME280;59039;52.108;19.942;2023-03-22T09:50:20;100324.77;;;10.18;77.63
60920;BME280;59039;52.108;19.942;2023-03-22T09:52:47;100321.48;;;10.24;77.76
60920;BME280;59039;52.108;19.942;2023-03-22T09:55:31;100318.75;;;10.30;77.52
60920;BME280;59039;52.108;19.942;2023-03-22T10:06:07;100324.83;;;10.55;77.23
60920;BME280;59039;52.108;19.942;2023-03-22T10:08:43;100324.23;;;10.61;77.10
60920;BME280;59039;52.108;19.942;2023-03-22T10:14:18;100317.02;;;10.73;76.78
60920;BME280;59039;52.108;19.942;2023-03-22T10:16:47;100312.58;;;10.79;76.68
60920;BME280;59039;52.108;19.942;2023-03-22T10:19:26;100314.00;;;10.83;76.58
60920;BME280;59039;52.108;19.942;2023-03-22T10:22:05;100309.75;;;10.87;76.29
60920;BME280;59039;52.108;19.942;2023-03-22T10:24:35;100307.88;;;10.93;76.51
60920;BME280;59039;52.108;19.942;2023-03-22T10:27:24;100309.64;;;10.97;76.33
60920;BME280;59039;52.108;19.942;2023-03-22T10:30:08;100305.81;;;11.03;76.41
60920;BME280;59039;52.108;19.942;2023-03-22T10:32:45;100308.98;;;11.09;76.39
60920;BME280;59039;52.108;19.942;2023-03-22T10:35:15;100307.00;;;11.15;76.28
60920;BME280;59039;52.108;19.942;2023-03-22T10:37:42;100301.70;;;11.23;76.38
60920;BME280;59039;52.108;19.942;2023-03-22T10:40:15;100300.09;;;11.29;76.25
60920;BME280;59039;52.108;19.942;2023-03-22T10:42:44;100301.96;;;11.37;76.22
60920;BME280;59039;52.108;19.942;2023-03-22T10:45:18;100298.46;;;11.44;75.90
60920;BME280;59039;52.108;19.942;2023-03-22T10:50:37;100294.75;;;11.59;75.94
60920;BME280;59039;52.108;19.942;2023-03-22T10:53:23;100299.72;;;11.67;75.85
60920;BME280;59039;52.108;19.942;2023-03-22T10:55:50;100302.06;;;11.76;75.74
60920;BME280;59039;52.108;19.942;2023-03-22T10:58:31;100301.47;;;11.83;75.37
60920;BME280;59039;52.108;19.942;2023-03-22T11:01:02;100295.17;;;11.91;75.28
60920;BME280;59039;52.108;19.942;2023-03-22T11:03:40;100293.70;;;11.98;74.92
60920;BME280;59039;52.108;19.942;2023-03-22T11:06:15;100290.63;;;12.06;75.05
60920;BME280;59039;52.108;19.942;2023-03-22T11:08:46;100283.14;;;12.11;74.54
60920;BME280;59039;52.108;19.942;2023-03-22T11:11:19;100275.83;;;12.18;74.45
60920;BME280;59039;52.108;19.942;2023-03-22T11:16:57;100263.51;;;12.31;74.43
60920;BME280;59039;52.108;19.942;2023-03-22T11:19:27;100257.48;;;12.35;74.08
60920;BME280;59039;52.108;19.942;2023-03-22T11:21:59;100256.08;;;12.40;73.92
60920;BME280;59039;52.108;19.942;2023-03-22T11:24:30;100256.38;;;12.43;73.71
60920;BME280;59039;52.108;19.942;2023-03-22T11:27:19;100252.95;;;12.46;73.75
60920;BME280;59039;52.108;19.942;2023-03-22T11:30:07;100252.93;;;12.49;73.33
60920;BME280;59039;52.108;19.942;2023-03-22T11:32:37;100251.07;;;12.53;73.55
60920;BME280;59039;52.108;19.942;2023-03-22T11:35:21;100247.95;;;12.57;73.50
60920;BME280;59039;52.108;19.942;2023-03-22T11:38:08;100246.35;;;12.62;73.42
60920;BME280;59039;52.108;19.942;2023-03-22T11:40:51;100236.59;;;12.67;73.57
60920;BME280;59039;52.108;19.942;2023-03-22T11:43:39;100233.55;;;12.71;73.50
60920;BME280;59039;52.108;19.942;2023-03-22T11:46:07;100227.20;;;12.76;73.26
60920;BME280;59039;52.108;19.942;2023-03-22T11:48:33;100229.56;;;12.81;73.11
60920;BME280;59039;52.108;19.942;2023-03-22T11:51:11;100224.04;;;12.85;72.91
60920;BME280;59039;52.108;19.942;2023-03-22T11:53:39;100220.84;;;12.89;73.17
60920;BME280;59039;52.108;19.942;2023-03-22T11:56:08;100217.67;;;12.94;73.08
60920;BME280;59039;52.108;19.942;2023-03-22T12:01:10;100214.91;;;13.06;72.90
60920;BME280;59039;52.108;19.942;2023-03-22T12:03:39;100209.19;;;13.11;72.64
60920;BME280;59039;52.108;19.942;2023-03-22T12:06:37;100198.97;;;13.17;72.64
60920;BME280;59039;52.108;19.942;2023-03-22T12:12:19;100200.80;;;13.28;72.15
60920;BME280;59039;52.108;19.942;2023-03-22T12:22:58;100193.04;;;13.49;71.83
60920;BME280;59039;52.108;19.942;2023-03-22T12:28:16;100189.59;;;13.57;71.56
60920;BME280;59039;52.108;19.942;2023-03-22T12:30:45;100186.64;;;13.62;71.58
60920;BME280;59039;52.108;19.942;2023-03-22T12:33:31;100185.98;;;13.66;71.65
60920;BME280;59039;52.108;19.942;2023-03-22T12:36:15;100181.21;;;13.69;71.33
60920;BME280;59039;52.108;19.942;2023-03-22T12:38:52;100183.71;;;13.73;71.27
60920;BME280;59039;52.108;19.942;2023-03-22T12:41:30;100182.73;;;13.76;71.36
60920;BME280;59039;52.108;19.942;2023-03-22T12:44:36;100178.08;;;13.79;71.10
60920;BME280;59039;52.108;19.942;2023-03-22T12:47:25;100174.25;;;13.82;71.10
60920;BME280;59039;52.108;19.942;2023-03-22T12:49:59;100171.38;;;13.85;70.97
60920;BME280;59039;52.108;19.942;2023-03-22T12:52:39;100169.36;;;13.88;71.08
60920;BME280;59039;52.108;19.942;2023-03-22T12:55:07;100174.16;;;13.90;70.90
60920;BME280;59039;52.108;19.942;2023-03-22T12:57:39;100171.48;;;13.93;70.85
60920;BME280;59039;52.108;19.942;2023-03-22T13:00:11;100166.20;;;13.96;70.95
60920;BME280;59039;52.108;19.942;2023-03-22T13:02:47;100166.66;;;13.98;70.75
60920;BME280;59039;52.108;19.942;2023-03-22T13:05:16;100165.67;;;14.00;70.58
60920;BME280;59039;52.108;19.942;2023-03-22T13:18:56;100162.98;;;14.07;70.26
60920;BME280;59039;52.108;19.942;2023-03-22T13:21:26;100165.09;;;14.07;70.25
60920;BME280;59039;52.108;19.942;2023-03-22T13:26:51;100154.05;;;14.09;70.26
60920;BME280;59039;52.108;19.942;2023-03-22T13:29:23;100149.91;;;14.11;70.19
60920;BME280;59039;52.108;19.942;2023-03-22T13:31:59;100146.02;;;14.11;69.92
60920;BME280;59039;52.108;19.942;2023-03-22T13:37:47;100132.52;;;14.16;70.12
60920;BME280;59039;52.108;19.942;2023-03-22T13:40:26;100128.75;;;14.20;70.25
60920;BME280;59039;52.108;19.942;2023-03-22T13:48:52;100120.55;;;14.33;69.54
60920;BME280;59039;52.108;19.942;2023-03-22T13:51:30;100119.93;;;14.37;69.18
60920;BME280;59039;52.108;19.942;2023-03-22T13:56:33;100117.46;;;14.43;69.38
60920;BME280;59039;52.108;19.942;2023-03-22T13:59:29;100112.92;;;14.45;69.39
60920;BME280;59039;52.108;19.942;2023-03-22T14:02:14;100109.46;;;14.48;68.85
60920;BME280;59039;52.108;19.942;2023-03-22T14:04:51;100103.19;;;14.50;68.97
60920;BME280;59039;52.108;19.942;2023-03-22T14:07:39;100102.23;;;14.52;68.73
60920;BME280;59039;52.108;19.942;2023-03-22T14:10:32;100101.48;;;14.54;68.70
60920;BME280;59039;52.108;19.942;2023-03-22T14:13:09;100099.02;;;14.56;68.87
60920;BME280;59039;52.108;19.942;2023-03-22T14:15:42;100092.10;;;14.58;69.01
60920;BME280;59039;52.108;19.942;2023-03-22T14:18:42;100092.95;;;14.59;68.81
60920;BME280;59039;52.108;19.942;2023-03-22T14:21:18;100093.83;;;14.62;68.64
60920;BME280;59039;52.108;19.942;2023-03-22T14:23:48;100095.34;;;14.64;68.66
60920;BME280;59039;52.108;19.942;2023-03-22T14:28:40;100093.23;;;14.68;68.46
60920;BME280;59039;52.108;19.942;2023-03-22T14:33:55;100089.70;;;14.71;68.35
60920;BME280;59039;52.108;19.942;2023-03-22T14:36:27;100090.70;;;14.72;68.35
60920;BME280;59039;52.108;19.942;2023-03-22T14:38:53;100090.36;;;14.73;68.10
60920;BME280;59039;52.108;19.942;2023-03-22T14:41:32;100086.97;;;14.74;68.11
60920;BME280;59039;52.108;19.942;2023-03-22T14:43:59;100085.04;;;14.75;68.06
60920;BME280;59039;52.108;19.942;2023-03-22T14:46:34;100079.24;;;14.76;68.12
60920;BME280;59039;52.108;19.942;2023-03-22T14:49:02;100073.95;;;14.76;68.03
60920;BME280;59039;52.108;19.942;2023-03-22T14:51:37;100071.92;;;14.76;67.68
60920;BME280;59039;52.108;19.942;2023-03-22T14:54:05;100069.08;;;14.77;67.89